Flight Track Log - Related Links

Times and Time Zones

All times are in EDT time to prevent confusion due to time zone crossing. See the UAL4236 flight status page for this flight to view local times or setup timezone preferences in your user account.

Time Position Orientation Groundspeed Altitude Reporting Facility
EDT Latitude Longitude Course Direction KTS MPH feet Rate Location/Type
Sun 12:15:45 PM 31.8433 -106.4175 336° Northwest 210 242 6,500  Level Albuquerque Center
Sun 12:16:16 PM 31.8511 -106.3922 70° East 217 250 7,400 2,066 Climbing Albuquerque Center
Sun 12:16:46 PM 31.8450 -106.3447 99° East 250 288 8,600 1,839 Climbing Albuquerque Center
Sun 12:17:00 PM 31.7601 -105.9882 96° East  Level Estimated
Sun 12:17:18 PM 31.8419 -106.3147 97° East 241 277 9,300  Level Albuquerque Center
Sun 12:18:00 PM 31.7418 -105.8593 99° East  Level FlightAware Approximate
Sun 12:18:19 PM 31.8306 -106.2239 98° East 280 322 10,600  Level Albuquerque Center
Sun 12:19:00 PM 31.7222 -105.7221 100° East  Level FlightAware Approximate
Sun 12:19:21 PM 31.8142 -106.0950 98° East 331 381 11,900  Level Albuquerque Center
Sun 12:20:00 PM 31.7085 -105.5926 96° East  Level FlightAware Approximate
Sun 12:20:23 PM 31.7981 -105.9739 99° East 373 429 13,000  Level Albuquerque Center
Sun 12:21:25 PM 31.7814 -105.8472 99° East 388 447 14,300 1,258 Climbing Albuquerque Center
Sun 12:22:27 PM 31.7644 -105.7186 99° East 398 458 15,600 1,161 Climbing Albuquerque Center
Sun 12:23:29 PM 31.7481 -105.5869 98° East 406 467 16,700 1,065 Climbing Albuquerque Center
Sun 12:24:31 PM 31.7306 -105.4517 99° East 416 479 17,800 919 Climbing Albuquerque Center
Sun 12:25:33 PM 31.7117 -105.3147 99° East 423 487 18,600 968 Climbing Albuquerque Center
Sun 12:26:35 PM 31.6900 -105.1467 99° East 431 496 19,800 1,065 Climbing Albuquerque Center
Sun 12:27:37 PM 31.6714 -105.0033 99° East 439 505 20,800 968 Climbing Albuquerque Center
Sun 12:28:39 PM 31.6506 -104.8572 99° East 448 516 21,800 1,016 Climbing Albuquerque Center
Sun 12:29:41 PM 31.6314 -104.7092 99° East 455 524 22,900 1,113 Climbing Albuquerque Center
Sun 12:30:43 PM 31.6108 -104.5619 99° East 457 526 24,100 1,161 Climbing Albuquerque Center
Sun 12:31:45 PM 31.5903 -104.4158 99° East 455 524 25,300 1,113 Climbing Albuquerque Center
Sun 12:32:47 PM 31.5708 -104.2706 99° East 452 520 26,400 1,210 Climbing Albuquerque Center
Sun 12:33:49 PM 31.5458 -104.0983 100° East 448 516 27,800 1,161 Climbing Albuquerque Center
Sun 12:34:51 PM 31.5258 -103.9544 99° East 446 513 28,800 968 Climbing Albuquerque Center
Sun 12:35:53 PM 31.5050 -103.8094 100° East 450 518 29,800 968 Climbing Albuquerque Center
Sun 12:36:55 PM 31.4806 -103.6503 100° East 452 520 30,800 968 Climbing Albuquerque Center
Sun 12:37:57 PM 31.4614 -103.5019 99° East 459 528 31,800 968 Climbing Albuquerque Center
Sun 12:38:59 PM 31.4419 -103.3539 99° East 462 532 32,800 968 Climbing Albuquerque Center
Sun 12:40:01 PM 31.4225 -103.2028 99° East 467 537 33,800 968 Climbing Albuquerque Center
Sun 12:41:03 PM 31.4039 -103.0519 98° East 469 540 34,800 581 Climbing Albuquerque Center
Sun 12:42:05 PM 31.3806 -102.8683 98° East 474 545 35,000 97 Climbing Albuquerque Center
Sun 12:43:07 PM 31.3608 -102.7097 98° East 488 562 35,000  Level Albuquerque Center
Sun 12:44:09 PM 31.3392 -102.5508 99° East 494 568 35,000  Level Albuquerque Center
Sun 12:45:11 PM 31.3206 -102.4019 98° East 501 577 35,000  Level Albuquerque Center
Sun 12:46:13 PM 31.2958 -102.2144 99° East 497 572 35,000  Level Albuquerque Center
Sun 12:47:15 PM 31.2753 -102.0569 99° East 494 568 35,000  Level Albuquerque Center
Sun 12:48:17 PM 31.2542 -101.8981 99° East 496 571 35,000  Level Albuquerque Center
Sun 12:49:19 PM 31.2325 -101.7367 99° East 499 574 35,000  Level Albuquerque Center
Sun 12:50:11 PM 31.2147 -101.6092 99° East 501 577 35,000  Level Houston Center
Sun 12:51:12 PM 31.1881 -101.4153 99° East 504 580 35,000  Level Houston Center
Sun 12:52:14 PM 31.1689 -101.2733 99° East 506 582 35,000  Level Houston Center
Sun 12:53:16 PM 31.1453 -101.1097 100° East 510 587 35,000  Level Houston Center
Sun 12:54:18 PM 31.1189 -100.9122 99° East 513 590 35,000  Level Houston Center
Sun 12:55:20 PM 31.0942 -100.7486 100° East 511 588 35,000  Level Houston Center
Sun 12:56:22 PM 31.0711 -100.5847 99° East 511 588 35,000  Level Houston Center
Sun 12:57:24 PM 31.0464 -100.4206 100° East 512 589 35,000  Level Houston Center
Sun 12:58:26 PM 31.0231 -100.2564 99° East 513 590 35,000  Level Houston Center
Sun 12:59:28 PM 30.9983 -100.0922 100° East 512 589 35,000  Level Houston Center
Sun 01:00:30 PM 30.9739 -99.9281 100° East 513 590 35,000  Level Houston Center
Sun 01:01:32 PM 30.9436 -99.7317 100° East 512 589 35,000  Level Houston Center
Sun 01:02:34 PM 30.9186 -99.5661 100° East 517 595 35,000 -48 Level Houston Center
Sun 01:03:36 PM 30.8925 -99.4000 100° East 520 598 34,900  Descending Houston Center
Sun 01:04:38 PM 30.8672 -99.2356 100° East 517 595 35,000 48 Climbing Houston Center
Sun 01:05:40 PM 30.8394 -99.0636 101° East 515 593 35,000  Level Houston Center
Sun 01:06:42 PM 30.8133 -98.9022 101° East 505 581 35,000  Level Houston Center
Sun 01:07:44 PM 30.7950 -98.7422 98° East 497 572 35,000 -97 Level Houston Center
Sun 01:08:46 PM 30.7997 -98.5811 88° East 495 570 34,800 -871 Descending Houston Center
Sun 01:09:48 PM 30.8033 -98.3944 89° East 492 566 33,200 -1,645 Descending Houston Center
Sun 01:10:50 PM 30.8072 -98.2369 88° East 485 558 31,400 -1,790 Descending Houston Center
Sun 01:11:52 PM 30.8097 -98.0817 89° East 477 549 29,500 -1,161 Descending Houston Center
Sun 01:12:54 PM 30.8119 -97.9231 89° East 485 558 29,000 -242 Descending Houston Center
Sun 01:13:56 PM 30.8142 -97.7628 89° East 492 566 29,000  Level Houston Center
Sun 01:14:58 PM 30.8150 -97.6033 90° East 491 565 29,000  Level Houston Center
Sun 01:16:01 PM 30.8181 -97.4150 89° East 498 573 29,000  Level Houston Center
Sun 01:17:03 PM 30.8189 -97.2547 90° East 503 579 29,000  Level Houston Center
Sun 01:18:05 PM 30.8222 -97.0897 89° East 515 593 29,000  Level Houston Center
Sun 01:19:07 PM 30.8233 -96.9217 90° East 519 597 29,000 -629 Level Houston Center
Sun 01:20:09 PM 30.8242 -96.7522 90° East 521 600 27,700 -2,516 Descending Houston Center
Sun 01:21:11 PM 30.8250 -96.5553 90° East 520 598 23,800 -3,290 Descending Houston Center
Sun 01:22:13 PM 30.8253 -96.3969 90° East 491 565 20,900 -2,806 Descending Houston Center
Sun 01:23:15 PM 30.8022 -96.2506 100° East 462 532 18,000 -2,496 Descending Houston Center
Sun 01:24:18 PM 30.7203 -96.1456 132° Southeast 434 499 15,700 -2,537 Descending Houston Center
Sun 01:25:18 PM 30.6286 -96.0489 138° Southeast 390 449 12,800 -2,680 Descending Houston Center
Sun 01:26:01 PM 30.5711 -95.9875 137° Southeast 387 445 11,100 -2,063 Descending Houston Center
Sun 01:26:22 PM 30.5514 -95.9664 137° Southeast 388 447 10,600 -1,075 Descending Houston Center
Sun 01:27:08 PM 30.4883 -95.9050 140° Southeast 318 366 9,900 -581 Descending Houston Center
Sun 01:27:24 PM 30.4833 -95.8931 116° Southeast 336 387 10,000 97 Climbing Houston Center
Sun 01:28:10 PM 30.4278 -95.8369 139° Southeast 299 344 10,000  Level Houston Center
Sun 01:28:26 PM 30.4211 -95.8294 136° Southeast 301 346 10,000 -1,469 Level Houston Center
Sun 01:28:59 PM 30.3794 -95.7892 140° Southeast 285 328 8,800 -1,548 Descending Houston Center
Sun 01:29:28 PM 30.3558 -95.7856 172° South 296 341 8,400 -787 Descending Houston Center
Sun 01:30:00 PM 30.3039 -95.7883 183° South 266 306 8,000 -484 Descending Houston Center
Sun 01:30:30 PM 30.2692 -95.7858 176° South 262 302 7,900  Descending Houston Center
Sun 01:31:07 PM 30.2211 -95.7786 173° South 271 312 8,000 97 Climbing Houston Center
Sun 01:31:32 PM 30.1953 -95.7733 170° South 268 308 8,000 -689 Level Houston Center
Sun 01:32:08 PM 30.1528 -95.7408 147° Southeast 272 313 7,300 -1,238 Descending Houston Center
Sun 01:32:35 PM 30.1400 -95.7192 124° Southeast 268 308 6,700 -1,742 Descending Houston Center
Sun 01:33:10 PM 30.1075 -95.6786 133° Southeast 261 300 5,500 -1,645 Descending Houston Center
Sun 01:33:37 PM 30.0931 -95.6575 128° Southeast 257 296 5,000 -1,574 Descending Houston Center
Sun 01:34:11 PM 30.0575 -95.6144 134° Southeast 256 295 3,900 -1,452 Descending Houston Center
Sun 01:34:39 PM 30.0450 -95.5975 130° Southeast 256 295 3,500 -885 Descending Houston Center
Sun 01:35:12 PM 30.0131 -95.5617 136° Southeast 212 244 3,000 -484 Descending Houston Center
Sun 01:35:41 PM 30.0028 -95.5472 129° Southeast 237 273 3,000 -353 Level Houston Center
Sun 01:36:20 PM 29.9911 -95.5042 107° East 168 193 2,600 -774 Descending Houston Center
Sun 01:36:43 PM 29.9933 -95.4819 83° East 197 227 2,200 -1,043 Descending Houston Center

Login

Don't have an account? Register now (free) for customized features, flight alerts, and more!